Time;durP1;ratioP1;P1;durP2;ratioP2;P2;SDS_P1;SDS_P2;PMS_P1;PMS_P2;Temp;Humidity;BMP_temperature;BMP_pressure;BME280_temperature;BME280_humidity;BME280_pressure;Samples;Min_cycle;Max_cycle;Signal;HPM_P1;HPM_P2
2024/02/15 00:00:18;;;;;;;;;7.25;7.00;;;;;;;;5080725;27;46121;-73
2024/02/15 00:02:46;;;;;;;;;8.25;6.50;;;;;;;;5078491;27;45472;-73
2024/02/15 00:05:12;;;;;;;;;7.75;7.50;;;;;;;;5079535;27;45528;-73
2024/02/15 00:07:38;;;;;;;;;9.00;7.00;;;;;;;;5081199;27;45276;-73
2024/02/15 00:10:04;;;;;;;;;7.75;6.75;;;;;;;;5080175;27;45696;-73
2024/02/15 00:12:32;;;;;;;;;9.75;8.75;;;;;;;;5079105;28;45342;-73
2024/02/15 00:14:58;;;;;;;;;8.00;7.75;;;;;;;;5080394;27;46329;-73
2024/02/15 00:17:23;;;;;;;;;6.75;6.75;;;;;;;;5079505;27;45429;-73
2024/02/15 00:19:49;;;;;;;;;6.50;6.50;;;;;;;;5080788;27;45487;-73
2024/02/15 00:22:14;;;;;;;;;7.00;7.00;;;;;;;;5079896;27;45581;-73
2024/02/15 00:24:41;;;;;;;;;8.33;8.33;;;;;;;;5080496;27;45481;-73
2024/02/15 00:27:06;;;;;;;;;6.75;6.75;;;;;;;;5071766;27;45611;-73
2024/02/15 00:29:32;;;;;;;;;8.67;7.67;;;;;;;;5076865;27;45658;-73
2024/02/15 00:31:57;;;;;;;;;5.67;5.67;;;;;;;;5079634;27;45504;-73
2024/02/15 00:34:22;;;;;;;;;8.00;8.00;;;;;;;;5081611;27;47922;-73
2024/02/15 00:36:47;;;;;;;;;8.33;8.00;;;;;;;;5079798;27;45519;-73
2024/02/15 00:39:13;;;;;;;;;9.00;9.00;;;;;;;;5080519;27;45343;-73
2024/02/15 00:41:41;;;;;;;;;9.00;7.25;;;;;;;;5079549;27;45507;-73
2024/02/15 00:44:08;;;;;;;;;5.75;5.75;;;;;;;;5079850;27;46917;-73
2024/02/15 00:46:33;;;;;;;;;4.50;2.50;;;;;;;;5080009;27;45591;-73
2024/02/15 00:48:59;;;;;;;;;10.00;7.00;;;;;;;;5078807;27;45535;-73
2024/02/15 00:51:24;;;;;;;;;6.00;5.25;;;;;;;;5080269;27;45518;-73
2024/02/15 00:53:49;;;;;;;;;9.33;7.67;;;;;;;;5079440;27;45568;-73
2024/02/15 00:56:15;;;;;;;;;8.00;7.50;;;;;;;;5077205;27;45334;-73
2024/02/15 00:58:40;;;;;;;;;10.00;7.67;;;;;;;;5079948;27;45431;-73
2024/02/15 01:01:05;;;;;;;;;7.00;7.00;;;;;;;;5079674;27;45365;-73
2024/02/15 01:03:30;;;;;;;;;5.00;5.00;;;;;;;;5078389;27;48132;-73
2024/02/15 01:05:56;;;;;;;;;9.00;7.00;;;;;;;;5074638;27;45567;-73
2024/02/15 01:08:21;;;;;;;;;4.00;4.00;;;;;;;;5078764;27;45409;-73
2024/02/15 01:10:46;;;;;;;;;8.33;8.33;;;;;;;;5078156;27;45382;-73
2024/02/15 01:13:12;;;;;;;;;10.33;9.00;;;;;;;;5079204;27;45455;-73
2024/02/15 01:15:37;;;;;;;;;16.50;13.50;;;;;;;;5080085;27;45338;-73
2024/02/15 01:18:02;;;;;;;;;6.67;6.00;;;;;;;;5078247;27;45496;-73
2024/02/15 01:20:27;;;;;;;;;11.25;10.50;;;;;;;;5079499;27;45492;-73
2024/02/15 01:22:53;;;;;;;;;6.67;6.00;;;;;;;;5078615;27;46300;-73
2024/02/15 01:25:18;;;;;;;;;6.00;6.00;;;;;;;;5071857;27;45730;-73
2024/02/15 01:27:43;;;;;;;;;5.00;5.00;;;;;;;;5079518;27;45471;-73
2024/02/15 01:30:09;;;;;;;;;7.00;7.00;;;;;;;;5079136;27;45360;-73
2024/02/15 01:32:35;;;;;;;;;6.00;5.00;;;;;;;;5077975;27;48182;-73
2024/02/15 01:35:00;;;;;;;;;5.00;5.00;;;;;;;;5081024;27;45461;-73
2024/02/15 01:37:25;;;;;;;;;5.67;5.67;;;;;;;;5078449;27;45447;-73
2024/02/15 01:39:51;;;;;;;;;4.75;4.75;;;;;;;;5079412;27;45544;-73
2024/02/15 01:42:16;;;;;;;;;5.25;5.00;;;;;;;;5078777;28;45491;-73
2024/02/15 01:44:43;;;;;;;;;6.00;5.33;;;;;;;;5079325;27;45405;-73
2024/02/15 01:47:10;;;;;;;;;4.00;4.00;;;;;;;;5079277;27;45511;-73
2024/02/15 01:49:35;;;;;;;;;5.25;5.00;;;;;;;;5079002;27;45386;-73
2024/02/15 01:52:02;;;;;;;;;5.75;4.75;;;;;;;;5079541;27;46718;-73
2024/02/15 01:54:27;;;;;;;;;8.25;5.00;;;;;;;;5079623;27;45764;-73
2024/02/15 01:56:54;;;;;;;;;4.25;4.25;;;;;;;;5078503;28;45766;-73
2024/02/15 01:59:21;;;;;;;;;5.50;5.50;;;;;;;;5077694;27;45353;-73
2024/02/15 02:01:46;;;;;;;;;7.00;5.50;;;;;;;;5081142;27;46453;-73
2024/02/15 02:04:12;;;;;;;;;6.67;6.00;;;;;;;;5075548;28;45381;-73
2024/02/15 02:06:38;;;;;;;;;4.75;4.50;;;;;;;;5078016;27;45398;-73
2024/02/15 02:09:03;;;;;;;;;4.75;4.75;;;;;;;;5078974;27;45379;-73
2024/02/15 02:11:29;;;;;;;;;5.50;3.00;;;;;;;;5076663;27;45428;-73
2024/02/15 02:13:54;;;;;;;;;4.75;4.00;;;;;;;;5078288;28;45416;-73
2024/02/15 02:16:32;;;;;;;;;4.25;4.25;;;;;;;;5077576;27;45508;-73
2024/02/15 02:18:57;;;;;;;;;8.50;4.00;;;;;;;;5078261;27;46001;-73
2024/02/15 02:21:25;;;;;;;;;5.25;5.25;;;;;;;;5074242;27;46421;-73
2024/02/15 02:23:52;;;;;;;;;4.00;3.00;;;;;;;;5079169;27;45540;-73
2024/02/15 02:26:21;;;;;;;;;4.00;4.00;;;;;;;;5077438;27;45381;-73
2024/02/15 02:28:46;;;;;;;;;3.00;3.00;;;;;;;;5078742;28;45609;-73
2024/02/15 02:31:12;;;;;;;;;4.00;4.00;;;;;;;;5077236;27;46813;-73
2024/02/15 02:33:37;;;;;;;;;4.67;4.00;;;;;;;;5077869;27;45579;-73
2024/02/15 02:36:02;;;;;;;;;5.67;4.67;;;;;;;;5077986;27;45361;-73
2024/02/15 02:38:28;;;;;;;;;3.75;3.75;;;;;;;;5078357;27;45310;-73
2024/02/15 02:40:53;;;;;;;;;4.00;4.00;;;;;;;;5076633;28;47856;-73
2024/02/15 02:43:18;;;;;;;;;5.00;4.00;;;;;;;;5077356;28;45290;-73
2024/02/15 02:45:45;;;;;;;;;4.00;4.00;;;;;;;;5076377;27;45557;-73
2024/02/15 02:48:11;;;;;;;;;7.00;5.00;;;;;;;;5078346;27;45377;-74
2024/02/15 02:50:36;;;;;;;;;4.00;4.00;;;;;;;;5078324;27;46235;-74
2024/02/15 02:53:02;;;;;;;;;5.00;5.00;;;;;;;;5076910;28;45435;-74
2024/02/15 02:55:27;;;;;;;;;6.00;5.00;;;;;;;;5076991;28;45521;-74
2024/02/15 02:57:54;;;;;;;;;4.50;4.50;;;;;;;;5078042;27;45400;-74
2024/02/15 03:00:20;;;;;;;;;4.00;2.00;;;;;;;;5076616;27;47350;-74
2024/02/15 03:02:46;;;;;;;;;4.00;4.00;;;;;;;;5079589;27;45528;-74
2024/02/15 03:05:12;;;;;;;;;4.00;4.00;;;;;;;;5073575;27;45580;-73
2024/02/15 03:07:38;;;;;;;;;5.25;4.00;;;;;;;;5076527;27;45493;-74
2024/02/15 03:10:04;;;;;;;;;5.75;5.75;;;;;;;;5077942;27;45364;-74
2024/02/15 03:12:30;;;;;;;;;6.75;6.75;;;;;;;;5075333;27;45579;-73
2024/02/15 03:14:55;;;;;;;;;6.00;6.00;;;;;;;;5078512;27;45259;-74
2024/02/15 03:17:20;;;;;;;;;6.00;4.67;;;;;;;;5077790;27;45607;-74
2024/02/15 03:19:48;;;;;;;;;6.25;5.00;;;;;;;;5077058;27;45986;-74
2024/02/15 03:22:13;;;;;;;;;7.50;6.00;;;;;;;;5078066;27;45480;-74
2024/02/15 03:24:39;;;;;;;;;4.67;4.00;;;;;;;;5077601;28;45584;-73
2024/02/15 03:27:04;;;;;;;;;5.00;4.00;;;;;;;;5075938;27;45829;-74
2024/02/15 03:29:36;;;;;;;;;3.33;3.33;;;;;;;;5077634;27;46300;-74
2024/02/15 03:32:04;;;;;;;;;7.75;6.00;;;;;;;;5073168;28;45513;-74
2024/02/15 03:34:29;;;;;;;;;5.25;5.25;;;;;;;;5079133;27;45378;-73
2024/02/15 03:36:56;;;;;;;;;6.50;3.50;;;;;;;;5081137;27;45445;-73
2024/02/15 03:39:23;;;;;;;;;3.67;3.67;;;;;;;;5081083;27;46136;-73
2024/02/15 03:41:48;;;;;;;;;5.00;4.00;;;;;;;;5079790;27;45617;-73
2024/02/15 03:44:13;;;;;;;;;5.67;5.67;;;;;;;;5080373;27;45327;-74
2024/02/15 03:46:39;;;;;;;;;7.25;5.25;;;;;;;;5072024;27;45556;-73
2024/02/15 03:49:06;;;;;;;;;8.00;8.00;;;;;;;;5081135;27;46344;-73
2024/02/15 03:51:32;;;;;;;;;7.00;6.00;;;;;;;;5079418;27;45688;-74
2024/02/15 03:53:58;;;;;;;;;6.00;5.00;;;;;;;;5080893;27;45512;-74
2024/02/15 03:56:23;;;;;;;;;4.00;4.00;;;;;;;;5079826;27;45499;-73
2024/02/15 03:58:50;;;;;;;;;5.25;5.25;;;;;;;;5080786;27;45417;-73
2024/02/15 04:01:15;;;;;;;;;7.50;4.75;;;;;;;;5082758;27;45547;-73
2024/02/15 04:03:40;;;;;;;;;4.25;4.25;;;;;;;;5080489;27;45448;-74
2024/02/15 04:06:06;;;;;;;;;7.00;6.00;;;;;;;;5079504;27;47083;-73
2024/02/15 04:08:31;;;;;;;;;4.25;4.25;;;;;;;;5080341;27;46163;-73
2024/02/15 04:10:57;;;;;;;;;6.33;5.00;;;;;;;;5078907;27;46422;-74
2024/02/15 04:13:22;;;;;;;;;4.00;4.00;;;;;;;;5080314;27;45423;-73
2024/02/15 04:15:49;;;;;;;;;6.00;6.00;;;;;;;;5080608;27;45548;-74
2024/02/15 04:18:14;;;;;;;;;5.50;5.50;;;;;;;;5080303;27;46485;-73
2024/02/15 04:20:44;;;;;;;;;14.67;10.67;;;;;;;;5079962;27;45349;-73
2024/02/15 04:23:10;;;;;;;;;16.00;16.00;;;;;;;;5079144;27;45650;-73
2024/02/15 04:25:35;;;;;;;;;16.25;14.00;;;;;;;;5080491;27;45469;-73
2024/02/15 04:28:03;;;;;;;;;10.00;9.00;;;;;;;;5080725;27;45461;-74
2024/02/15 04:30:28;;;;;;;;;6.00;5.25;;;;;;;;5079805;28;45704;-74
2024/02/15 04:32:53;;;;;;;;;6.67;6.00;;;;;;;;5081243;27;45659;-73
2024/02/15 04:35:19;;;;;;;;;6.00;6.00;;;;;;;;5080483;27;45570;-74
2024/02/15 04:37:46;;;;;;;;;5.75;5.50;;;;;;;;5080662;27;45428;-73
2024/02/15 04:40:13;;;;;;;;;5.00;5.00;;;;;;;;5081007;27;45436;-73
2024/02/15 04:42:39;;;;;;;;;4.50;4.00;;;;;;;;5080833;27;45413;-73
2024/02/15 04:45:08;;;;;;;;;5.00;5.00;;;;;;;;5080918;27;45493;-74
2024/02/15 04:47:33;;;;;;;;;3.75;3.75;;;;;;;;5081124;27;45282;-73
2024/02/15 04:49:59;;;;;;;;;5.00;5.00;;;;;;;;5079482;27;45389;-73
2024/02/15 04:52:24;;;;;;;;;4.00;3.00;;;;;;;;5080942;28;45729;-73
2024/02/15 04:54:49;;;;;;;;;9.00;4.00;;;;;;;;5080931;27;45267;-73
2024/02/15 04:57:14;;;;;;;;;7.33;5.67;;;;;;;;5080203;27;45553;-73
2024/02/15 04:59:39;;;;;;;;;10.00;9.00;;;;;;;;5080774;27;45293;-73
2024/02/15 05:02:05;;;;;;;;;17.00;15.50;;;;;;;;5083051;27;45409;-74
2024/02/15 05:04:30;;;;;;;;;12.00;12.00;;;;;;;;5075884;27;45590;-73
2024/02/15 05:06:56;;;;;;;;;10.00;9.33;;;;;;;;5080353;27;46141;-73
2024/02/15 05:09:22;;;;;;;;;7.00;7.00;;;;;;;;5080310;27;45863;-74
2024/02/15 05:11:48;;;;;;;;;6.00;5.25;;;;;;;;5078656;27;45570;-73
2024/02/15 05:14:18;;;;;;;;;5.75;5.75;;;;;;;;5079032;27;45552;-74
2024/02/15 05:16:44;;;;;;;;;4.00;4.00;;;;;;;;5083924;27;45623;-73
2024/02/15 05:19:12;;;;;;;;;7.50;4.75;;;;;;;;5079783;27;45432;-73
2024/02/15 05:21:40;;;;;;;;;4.75;4.00;;;;;;;;5079081;27;45458;-74
2024/02/15 05:24:06;;;;;;;;;8.00;6.00;;;;;;;;5079049;27;45335;-73
2024/02/15 05:26:31;;;;;;;;;6.00;6.00;;;;;;;;5078591;27;48295;-73
2024/02/15 05:28:56;;;;;;;;;4.00;4.00;;;;;;;;5080100;27;45356;-73
2024/02/15 05:31:25;;;;;;;;;5.00;5.00;;;;;;;;5080605;27;45444;-74
2024/02/15 05:33:50;;;;;;;;;4.75;4.00;;;;;;;;5079214;27;45562;-73
2024/02/15 05:36:23;;;;;;;;;6.00;6.00;;;;;;;;5079435;27;46334;-73
2024/02/15 05:38:52;;;;;;;;;6.75;6.50;;;;;;;;5078895;27;45463;-73
2024/02/15 05:41:19;;;;;;;;;19.00;18.25;;;;;;;;5080020;27;45773;-73
2024/02/15 05:43:44;;;;;;;;;16.25;13.75;;;;;;;;5079822;28;45386;-74
2024/02/15 05:46:10;;;;;;;;;15.00;14.00;;;;;;;;5079734;28;45352;-73
2024/02/15 05:48:36;;;;;;;;;8.75;8.75;;;;;;;;5079720;27;45414;-74
2024/02/15 05:51:02;;;;;;;;;8.25;7.50;;;;;;;;5079767;27;45483;-74
2024/02/15 05:53:27;;;;;;;;;5.25;4.75;;;;;;;;5079857;27;45346;-73
2024/02/15 05:55:52;;;;;;;;;4.00;3.00;;;;;;;;5078723;27;45380;-73
2024/02/15 05:58:17;;;;;;;;;4.00;4.00;;;;;;;;5079311;27;45414;-73
2024/02/15 06:00:44;;;;;;;;;4.25;4.25;;;;;;;;5081535;27;45463;-74
2024/02/15 06:03:11;;;;;;;;;6.00;4.25;;;;;;;;5085297;27;45681;-73
2024/02/15 06:05:36;;;;;;;;;3.25;3.25;;;;;;;;5074759;27;45907;-74
2024/02/15 06:08:01;;;;;;;;;4.00;4.00;;;;;;;;5079549;27;45508;-73
2024/02/15 06:10:26;;;;;;;;;6.00;5.00;;;;;;;;5076724;28;45507;-74
2024/02/15 06:12:52;;;;;;;;;6.50;5.00;;;;;;;;5075289;28;45393;-74
2024/02/15 06:15:17;;;;;;;;;8.67;7.33;;;;;;;;5079628;27;46211;-73
2024/02/15 06:17:45;;;;;;;;;7.00;6.25;;;;;;;;5079335;27;45454;-73
2024/02/15 06:20:14;;;;;;;;;14.75;14.75;;;;;;;;5079036;27;45368;-73
2024/02/15 06:22:39;;;;;;;;;24.75;21.50;;;;;;;;5079250;28;45333;-74
2024/02/15 06:25:05;;;;;;;;;18.50;15.50;;;;;;;;5079353;28;46013;-74
2024/02/15 06:27:30;;;;;;;;;10.50;10.50;;;;;;;;5078877;28;45318;-73
2024/02/15 06:40:54;;;;;;;;;5.00;4.25;;;;;;;;5079565;28;45360;-65
2024/02/15 06:43:19;;;;;;;;;6.00;4.25;;;;;;;;5073384;27;45578;-64
2024/02/15 06:45:46;;;;;;;;;4.00;4.00;;;;;;;;5082239;27;45385;-65
2024/02/15 06:48:12;;;;;;;;;4.25;4.25;;;;;;;;5093190;27;45581;-64
2024/02/15 06:50:37;;;;;;;;;5.75;5.50;;;;;;;;5095549;27;45416;-64
2024/02/15 06:53:02;;;;;;;;;25.33;24.00;;;;;;;;5084130;27;45504;-64
2024/02/15 06:55:28;;;;;;;;;25.50;21.25;;;;;;;;5086863;27;45713;-64
2024/02/15 06:57:55;;;;;;;;;20.75;20.75;;;;;;;;5084741;27;45562;-64
2024/02/15 07:00:20;;;;;;;;;25.00;23.75;;;;;;;;5078612;27;45587;-64
2024/02/15 07:02:45;;;;;;;;;17.00;15.67;;;;;;;;5072481;27;45413;-64
2024/02/15 07:05:10;;;;;;;;;13.33;12.00;;;;;;;;5074271;27;46587;-64
2024/02/15 07:07:35;;;;;;;;;7.25;6.75;;;;;;;;5082262;27;45369;-64
2024/02/15 07:10:02;;;;;;;;;6.75;5.00;;;;;;;;5103356;27;45527;-65
2024/02/15 07:12:28;;;;;;;;;6.75;6.00;;;;;;;;5079733;27;45429;-65
2024/02/15 07:14:54;;;;;;;;;4.00;4.00;;;;;;;;5101327;27;46067;-65
2024/02/15 07:17:20;;;;;;;;;5.25;4.00;;;;;;;;5103010;27;45365;-64
2024/02/15 07:19:45;;;;;;;;;5.00;3.25;;;;;;;;5071327;27;45400;-63
2024/02/15 07:22:11;;;;;;;;;4.00;4.00;;;;;;;;5082594;27;45299;-64
2024/02/15 07:24:38;;;;;;;;;5.75;5.00;;;;;;;;5080929;27;45857;-63
2024/02/15 07:27:04;;;;;;;;;4.25;3.50;;;;;;;;5079766;27;45543;-64
2024/02/15 07:29:31;;;;;;;;;7.50;6.00;;;;;;;;5070649;27;45537;-64
2024/02/15 07:31:57;;;;;;;;;14.75;12.50;;;;;;;;5076717;27;45504;-64
2024/02/15 07:34:22;;;;;;;;;15.00;11.25;;;;;;;;5080009;27;45514;-64
2024/02/15 07:36:47;;;;;;;;;9.33;9.00;;;;;;;;5080577;27;45317;-64
2024/02/15 07:39:22;;;;;;;;;6.33;5.33;;;;;;;;5081390;27;45235;-64
2024/02/15 07:41:48;;;;;;;;;5.00;5.00;;;;;;;;5081465;27;45452;-64
2024/02/15 07:44:14;;;;;;;;;6.25;6.25;;;;;;;;5075612;27;45973;-64
2024/02/15 07:46:40;;;;;;;;;8.33;5.67;;;;;;;;5075237;27;45417;-63
2024/02/15 07:49:05;;;;;;;;;1.00;1.00;;;;;;;;5068245;27;45564;-64
2024/02/15 07:51:31;;;;;;;;;7.75;7.00;;;;;;;;5078425;27;45466;-64
2024/02/15 07:53:56;;;;;;;;;7.33;7.33;;;;;;;;5071527;27;45396;-64
2024/02/15 07:56:21;;;;;;;;;6.33;6.33;;;;;;;;5078869;27;45602;-64
2024/02/15 07:58:48;;;;;;;;;5.33;5.33;;;;;;;;5076550;27;45486;-64
2024/02/15 08:01:13;;;;;;;;;6.75;6.75;;;;;;;;5080422;27;45917;-72
2024/02/15 08:03:44;;;;;;;;;14.75;13.25;;;;;;;;5070377;27;45463;-71
2024/02/15 08:06:09;;;;;;;;;27.50;25.75;;;;;;;;5079251;27;45711;-71
2024/02/15 08:08:35;;;;;;;;;23.00;21.75;;;;;;;;5081958;28;45330;-70
2024/02/15 08:11:02;;;;;;;;;11.75;10.25;;;;;;;;5077955;27;45717;-72
2024/02/15 08:13:29;;;;;;;;;12.00;10.75;;;;;;;;5069296;27;47029;-72
2024/02/15 08:15:54;;;;;;;;;7.00;7.00;;;;;;;;5076917;27;45739;-71
2024/02/15 08:18:20;;;;;;;;;8.00;7.00;;;;;;;;5078267;27;45472;-71
2024/02/15 08:20:45;;;;;;;;;8.00;6.50;;;;;;;;5084038;27;45342;-71
2024/02/15 08:23:10;;;;;;;;;6.00;6.00;;;;;;;;5080855;27;46307;-71
2024/02/15 08:25:38;;;;;;;;;8.75;6.50;;;;;;;;5079061;27;45489;-71
2024/02/15 08:28:05;;;;;;;;;6.00;6.00;;;;;;;;5081055;28;45326;-71
2024/02/15 08:30:30;;;;;;;;;7.75;6.50;;;;;;;;5078035;27;45450;-71
2024/02/15 08:32:55;;;;;;;;;9.00;8.00;;;;;;;;5079244;27;45345;-71
2024/02/15 08:35:20;;;;;;;;;6.67;6.67;;;;;;;;5079524;27;45690;-71
2024/02/15 08:37:47;;;;;;;;;6.67;6.67;;;;;;;;5073578;28;45703;-71
2024/02/15 08:40:13;;;;;;;;;25.25;23.50;;;;;;;;5078786;28;45743;-71
2024/02/15 08:42:39;;;;;;;;;24.75;21.25;;;;;;;;5079930;27;45505;-71
2024/02/15 08:45:05;;;;;;;;;18.50;16.00;;;;;;;;5079083;27;45450;-72
2024/02/15 08:47:30;;;;;;;;;6.50;5.50;;;;;;;;5073420;27;45433;-71
2024/02/15 08:49:55;;;;;;;;;9.00;8.67;;;;;;;;5076567;27;45456;-71
2024/02/15 08:52:20;;;;;;;;;4.00;4.00;;;;;;;;5078491;27;46155;-71
2024/02/15 08:54:46;;;;;;;;;8.50;8.50;;;;;;;;5075007;27;45487;-72
2024/02/15 08:57:11;;;;;;;;;13.00;9.00;;;;;;;;5078874;27;45471;-71
2024/02/15 08:59:36;;;;;;;;;9.25;9.25;;;;;;;;5083743;27;46069;-71
2024/02/15 09:02:02;;;;;;;;;8.50;8.50;;;;;;;;5084204;27;47019;-71
2024/02/15 09:04:28;;;;;;;;;7.25;7.25;;;;;;;;5075771;27;45334;-71
2024/02/15 09:06:53;;;;;;;;;10.00;9.00;;;;;;;;5083134;27;45519;-71
2024/02/15 09:09:18;;;;;;;;;7.00;7.00;;;;;;;;5076927;27;45604;-71
2024/02/15 09:11:43;;;;;;;;;9.33;9.33;;;;;;;;5073656;28;46142;-71
2024/02/15 09:14:11;;;;;;;;;18.00;14.33;;;;;;;;5075412;27;45319;-71
2024/02/15 09:16:36;;;;;;;;;19.75;19.00;;;;;;;;5076264;27;45437;-71
2024/02/15 09:19:02;;;;;;;;;10.33;8.33;;;;;;;;5077604;27;45745;-71
2024/02/15 09:21:29;;;;;;;;;8.75;8.50;;;;;;;;5078777;27;45544;-71
2024/02/15 09:23:54;;;;;;;;;7.75;7.50;;;;;;;;5067098;27;45579;-71
2024/02/15 09:26:19;;;;;;;;;7.00;7.00;;;;;;;;5078164;27;45370;-71
2024/02/15 09:28:44;;;;;;;;;8.33;7.33;;;;;;;;5083284;27;45364;-71
2024/02/15 09:31:13;;;;;;;;;8.33;8.33;;;;;;;;5081579;27;46405;-71
2024/02/15 09:33:38;;;;;;;;;10.00;10.00;;;;;;;;5069577;27;45410;-72
2024/02/15 09:36:04;;;;;;;;;6.67;6.67;;;;;;;;5086137;27;45397;-71
2024/02/15 09:38:29;;;;;;;;;10.50;8.75;;;;;;;;5074259;27;45520;-71
2024/02/15 09:40:55;;;;;;;;;8.25;7.00;;;;;;;;5078709;27;47443;-71
2024/02/15 09:43:20;;;;;;;;;14.25;9.25;;;;;;;;5079585;27;45680;-71
2024/02/15 09:45:46;;;;;;;;;10.00;9.67;;;;;;;;5076392;28;45494;-71
2024/02/15 09:48:13;;;;;;;;;17.00;14.50;;;;;;;;5077265;27;45575;-72
2024/02/15 09:50:39;;;;;;;;;19.75;17.25;;;;;;;;5076756;27;45563;-71
2024/02/15 09:53:06;;;;;;;;;15.00;15.00;;;;;;;;5077111;27;45778;-71
2024/02/15 09:55:33;;;;;;;;;10.75;7.00;;;;;;;;5076655;27;45890;-71
2024/02/15 09:57:59;;;;;;;;;8.50;7.00;;;;;;;;5073070;27;45388;-71
2024/02/15 10:00:24;;;;;;;;;5.75;4.25;;;;;;;;5077107;27;46598;-71
2024/02/15 10:02:50;;;;;;;;;4.00;2.33;;;;;;;;5074421;27;45452;-71
2024/02/15 10:05:17;;;;;;;;;7.00;5.75;;;;;;;;5071843;27;45497;-71
2024/02/15 10:07:44;;;;;;;;;6.25;6.25;;;;;;;;5079662;27;45421;-71
2024/02/15 10:10:19;;;;;;;;;5.25;5.25;;;;;;;;5083663;27;45434;-71
2024/02/15 10:12:47;;;;;;;;;6.75;6.00;;;;;;;;5075514;27;45910;-68
2024/02/15 10:15:26;;;;;;;;;8.50;6.50;;;;;;;;5080010;27;45291;-73
2024/02/15 10:17:56;;;;;;;;;2.00;2.00;;;;;;;;5077319;27;45551;-72
2024/02/15 10:20:25;;;;;;;;;8.00;7.00;;;;;;;;5076833;27;45487;-69
2024/02/15 10:22:50;;;;;;;;;9.00;7.75;;;;;;;;5080915;27;45394;-69
2024/02/15 10:25:15;;;;;;;;;11.67;8.67;;;;;;;;5089619;27;45588;-72
2024/02/15 10:27:41;;;;;;;;;8.50;8.50;;;;;;;;5083187;27;45465;-71
2024/02/15 10:30:19;;;;;;;;;9.75;9.25;;;;;;;;5075458;27;45557;-71
2024/02/15 10:32:45;;;;;;;;;5.75;5.75;;;;;;;;5075091;27;45743;-72
2024/02/15 10:35:15;;;;;;;;;5.00;5.00;;;;;;;;5068055;27;46031;-71
2024/02/15 10:37:40;;;;;;;;;5.50;4.00;;;;;;;;5078500;27;46470;-71
2024/02/15 10:40:07;;;;;;;;;5.00;5.00;;;;;;;;5066115;27;46125;-71
2024/02/15 10:42:34;;;;;;;;;7.75;6.00;;;;;;;;5088702;27;45326;-71
2024/02/15 10:45:01;;;;;;;;;8.00;6.00;;;;;;;;5080124;27;45389;-71
2024/02/15 10:47:27;;;;;;;;;5.25;4.00;;;;;;;;5081538;27;45540;-71
2024/02/15 10:49:52;;;;;;;;;5.00;5.00;;;;;;;;5075955;27;45481;-71
2024/02/15 10:52:19;;;;;;;;;7.00;7.00;;;;;;;;5082343;27;45388;-71
2024/02/15 10:55:01;;;;;;;;;7.00;5.00;;;;;;;;5099599;27;45297;-71
2024/02/15 10:57:27;;;;;;;;;5.75;5.75;;;;;;;;5074879;27;45448;-71
2024/02/15 11:00:10;;;;;;;;;6.50;6.00;;;;;;;;5077304;27;48436;-71
2024/02/15 11:02:43;;;;;;;;;8.25;7.75;;;;;;;;5072301;27;45458;-71
2024/02/15 11:05:11;;;;;;;;;6.50;6.50;;;;;;;;5090774;27;45330;-72
2024/02/15 11:07:37;;;;;;;;;6.00;5.75;;;;;;;;5080192;27;45734;-71
2024/02/15 11:10:07;;;;;;;;;6.00;4.75;;;;;;;;5081139;27;46436;-71
2024/02/15 11:12:33;;;;;;;;;6.00;6.00;;;;;;;;5078957;27;45369;-71
2024/02/15 11:14:58;;;;;;;;;4.25;4.25;;;;;;;;5078763;27;45404;-71
2024/02/15 11:17:39;;;;;;;;;10.67;8.33;;;;;;;;5091900;27;45451;-71
2024/02/15 11:20:11;;;;;;;;;6.75;6.75;;;;;;;;5083996;27;46041;-72
2024/02/15 11:22:37;;;;;;;;;5.50;5.50;;;;;;;;5079849;27;45853;-72
2024/02/15 11:25:08;;;;;;;;;7.00;6.00;;;;;;;;5092248;27;45330;-72
2024/02/15 11:27:36;;;;;;;;;5.75;5.00;;;;;;;;5085024;27;45425;-71
2024/02/15 11:30:04;;;;;;;;;5.00;5.00;;;;;;;;5080118;27;46467;-71
2024/02/15 11:32:49;;;;;;;;;4.25;4.00;;;;;;;;5084250;27;45558;-72
2024/02/15 11:35:14;;;;;;;;;7.50;7.00;;;;;;;;5076707;27;45496;-71
2024/02/15 11:37:55;;;;;;;;;7.75;7.00;;;;;;;;5075748;27;45423;-71
2024/02/15 11:40:30;;;;;;;;;7.00;6.00;;;;;;;;5076061;28;47484;-71
2024/02/15 11:42:58;;;;;;;;;6.25;6.25;;;;;;;;5077287;28;45422;-71
2024/02/15 11:45:25;;;;;;;;;7.00;7.00;;;;;;;;5076869;27;45491;-71
2024/02/15 11:47:50;;;;;;;;;6.00;5.00;;;;;;;;5077663;27;45517;-71
2024/02/15 11:50:17;;;;;;;;;7.00;7.00;;;;;;;;5077341;27;46133;-71
2024/02/15 11:52:42;;;;;;;;;6.00;6.00;;;;;;;;5078204;27;45436;-71
2024/02/15 11:55:10;;;;;;;;;5.00;5.00;;;;;;;;5080486;27;45446;-71
2024/02/15 11:57:50;;;;;;;;;4.00;4.00;;;;;;;;5077710;27;45628;-71
2024/02/15 12:19:28;;;;;;;;;6.75;6.75;;;;;;;;5094777;27;45348;-71
2024/02/15 12:21:54;;;;;;;;;5.00;4.00;;;;;;;;5078813;27;47106;-71
2024/02/15 12:24:23;;;;;;;;;4.75;3.75;;;;;;;;5090511;27;45664;-73
2024/02/15 12:26:48;;;;;;;;;6.00;5.00;;;;;;;;5090668;27;45391;-72
2024/02/15 12:29:17;;;;;;;;;5.67;5.67;;;;;;;;5085489;27;45334;-71
2024/02/15 12:31:44;;;;;;;;;6.75;5.50;;;;;;;;5095793;27;45426;-71
2024/02/15 12:34:09;;;;;;;;;7.00;4.00;;;;;;;;5082054;27;45400;-71
2024/02/15 12:36:38;;;;;;;;;6.75;6.75;;;;;;;;5080647;27;45350;-71
2024/02/15 12:39:11;;;;;;;;;4.50;4.50;;;;;;;;5084186;27;45666;-72
2024/02/15 12:41:42;;;;;;;;;4.00;4.00;;;;;;;;5082094;27;46340;-72
2024/02/15 12:44:10;;;;;;;;;4.00;4.00;;;;;;;;5079179;27;45337;-73
2024/02/15 12:46:35;;;;;;;;;3.00;3.00;;;;;;;;5081424;27;45433;-73
2024/02/15 12:49:17;;;;;;;;;21.25;21.25;;;;;;;;5093050;27;45327;-73
2024/02/15 12:51:50;;;;;;;;;9.75;9.75;;;;;;;;5079372;27;46176;-74
2024/02/15 12:54:20;;;;;;;;;7.00;7.00;;;;;;;;5074927;27;45605;-74
2024/02/15 12:56:46;;;;;;;;;5.50;5.00;;;;;;;;5076727;27;45384;-74
2024/02/15 12:59:12;;;;;;;;;4.67;4.67;;;;;;;;5087370;27;45353;-74
2024/02/15 13:01:38;;;;;;;;;5.00;3.25;;;;;;;;5101270;27;46898;-74
2024/02/15 13:04:05;;;;;;;;;6.00;3.50;;;;;;;;5099805;27;45534;-74
2024/02/15 13:06:31;;;;;;;;;3.75;3.75;;;;;;;;5082226;27;45433;-74
2024/02/15 13:08:57;;;;;;;;;3.75;3.00;;;;;;;;5080227;27;45484;-74
2024/02/15 13:11:24;;;;;;;;;5.50;4.75;;;;;;;;5078517;27;45380;-74
2024/02/15 13:13:49;;;;;;;;;4.25;4.25;;;;;;;;5084223;27;45536;-73
2024/02/15 13:16:14;;;;;;;;;2.00;2.00;;;;;;;;5067220;27;45556;-73
2024/02/15 13:18:39;;;;;;;;;4.33;3.33;;;;;;;;5080530;27;45347;-73
2024/02/15 13:21:06;;;;;;;;;6.00;6.00;;;;;;;;5079927;27;46086;-73
2024/02/15 13:23:32;;;;;;;;;3.50;3.00;;;;;;;;5080735;27;45324;-73
2024/02/15 13:25:58;;;;;;;;;4.75;4.25;;;;;;;;5079478;27;45598;-73
2024/02/15 13:28:24;;;;;;;;;6.50;6.00;;;;;;;;5078230;27;45318;-73
2024/02/15 13:30:51;;;;;;;;;8.00;6.50;;;;;;;;5068694;27;46091;-73
2024/02/15 13:33:16;;;;;;;;;6.00;5.00;;;;;;;;5079307;27;45464;-73
2024/02/15 13:35:42;;;;;;;;;4.25;4.25;;;;;;;;5079000;27;45634;-73
2024/02/15 13:38:14;;;;;;;;;5.50;4.00;;;;;;;;5075477;27;46558;-73
2024/02/15 13:40:39;;;;;;;;;3.50;3.50;;;;;;;;5078947;27;47070;-73
2024/02/15 13:43:04;;;;;;;;;4.75;3.25;;;;;;;;5078572;27;45600;-72
2024/02/15 13:45:44;;;;;;;;;4.00;4.00;;;;;;;;5077259;27;45591;-73
2024/02/15 13:48:10;;;;;;;;;3.25;3.25;;;;;;;;5072222;27;45552;-73
2024/02/15 13:50:36;;;;;;;;;4.00;3.00;;;;;;;;5078835;27;46179;-73
2024/02/15 13:53:04;;;;;;;;;3.25;3.00;;;;;;;;5068647;27;45504;-73
2024/02/15 13:55:29;;;;;;;;;3.00;3.00;;;;;;;;5079007;27;45456;-71
2024/02/15 13:57:58;;;;;;;;;3.00;3.00;;;;;;;;5071890;27;45448;-71
2024/02/15 14:00:29;;;;;;;;;4.00;2.75;;;;;;;;5072286;27;46501;-72
2024/02/15 14:02:55;;;;;;;;;4.75;3.50;;;;;;;;5078249;27;45454;-72
2024/02/15 14:05:23;;;;;;;;;5.00;3.50;;;;;;;;5077848;27;45468;-71
2024/02/15 14:07:49;;;;;;;;;5.50;4.00;;;;;;;;5092463;27;45445;-71
2024/02/15 14:10:15;;;;;;;;;3.00;3.00;;;;;;;;5070422;27;45347;-71
2024/02/15 14:12:40;;;;;;;;;4.25;4.25;;;;;;;;5075919;27;45354;-71
2024/02/15 14:15:05;;;;;;;;;3.75;3.00;;;;;;;;5078753;28;45500;-71
2024/02/15 14:17:31;;;;;;;;;3.50;3.25;;;;;;;;5078212;28;45480;-71
2024/02/15 14:19:57;;;;;;;;;3.00;3.00;;;;;;;;5067122;27;46559;-71
2024/02/15 14:22:23;;;;;;;;;3.00;3.00;;;;;;;;5077916;27;45833;-71
2024/02/15 14:24:48;;;;;;;;;1.75;1.75;;;;;;;;5075688;27;45543;-70
2024/02/15 14:27:14;;;;;;;;;2.50;2.50;;;;;;;;5077800;27;45439;-68
2024/02/15 14:32:59;;;;;;;;;2.75;2.75;;;;;;;;5076073;27;47063;-68
2024/02/15 14:35:08;;;;;;;;;2.50;2.50;;;;;;;;5076649;27;45461;-68
2024/02/15 14:37:34;;;;;;;;;2.00;2.00;;;;;;;;5088332;27;45551;-70
2024/02/15 14:39:59;;;;;;;;;4.00;2.00;;;;;;;;5064160;27;46291;-70
2024/02/15 14:42:24;;;;;;;;;10.33;5.67;;;;;;;;5071298;27;45737;-70
2024/02/15 14:44:50;;;;;;;;;7.00;6.00;;;;;;;;5076190;27;46119;-71
2024/02/15 14:47:15;;;;;;;;;6.75;6.50;;;;;;;;5074184;27;45524;-70
2024/02/15 14:49:40;;;;;;;;;4.33;4.33;;;;;;;;5074487;27;45519;-70
2024/02/15 14:52:05;;;;;;;;;2.33;2.33;;;;;;;;5075114;27;45654;-72
2024/02/15 14:54:30;;;;;;;;;2.00;2.00;;;;;;;;5072273;27;45472;-70
2024/02/15 14:56:56;;;;;;;;;4.00;4.00;;;;;;;;5073697;28;45514;-70
2024/02/15 14:59:22;;;;;;;;;2.00;2.00;;;;;;;;5089121;27;45451;-70
2024/02/15 15:01:47;;;;;;;;;2.25;2.00;;;;;;;;5073282;28;45640;-70
2024/02/15 15:04:12;;;;;;;;;3.25;3.25;;;;;;;;5074600;27;45739;-70
2024/02/15 15:14:50;;;;;;;;;3.00;3.00;;;;;;;;5067360;28;45575;-70
2024/02/15 15:17:17;;;;;;;;;3.25;3.25;;;;;;;;5074600;27;45516;-70